sensor_id;sensor_type;location;lat;lon;timestamp;pressure;altitude;pressure_sealevel;temperature;humidity
8398;BME280;4236;54.504;9.588;2023-05-23T00:01:58;101381.78;;;14.12;100.00
8398;BME280;4236;54.504;9.588;2023-05-23T00:04:25;101369.00;;;14.14;100.00
8398;BME280;4236;54.504;9.588;2023-05-23T00:06:53;101371.25;;;14.10;100.00
8398;BME280;4236;54.504;9.588;2023-05-23T00:09:22;101365.88;;;14.10;100.00
8398;BME280;4236;54.504;9.588;2023-05-23T00:11:49;101378.69;;;14.15;100.00
8398;BME280;4236;54.504;9.588;2023-05-23T00:14:17;101377.47;;;14.17;100.00
8398;BME280;4236;54.504;9.588;2023-05-23T00:16:47;101372.09;;;14.17;100.00
8398;BME280;4236;54.504;9.588;2023-05-23T00:19:16;101367.56;;;14.24;100.00
8398;BME280;4236;54.504;9.588;2023-05-23T00:21:46;101360.75;;;14.28;100.00
8398;BME280;4236;54.504;9.588;2023-05-23T00:24:15;101358.47;;;14.25;100.00
8398;BME280;4236;54.504;9.588;2023-05-23T00:26:44;101359.72;;;14.23;100.00
8398;BME280;4236;54.504;9.588;2023-05-23T00:29:13;101352.50;;;14.30;100.00
8398;BME280;4236;54.504;9.588;2023-05-23T00:31:43;101357.50;;;14.33;100.00
8398;BME280;4236;54.504;9.588;2023-05-23T00:34:14;101349.81;;;14.30;100.00
8398;BME280;4236;54.504;9.588;2023-05-23T00:36:43;101346.75;;;14.33;100.00
8398;BME280;4236;54.504;9.588;2023-05-23T00:39:13;101344.88;;;14.40;100.00
8398;BME280;4236;54.504;9.588;2023-05-23T00:41:46;101343.88;;;14.41;100.00
8398;BME280;4236;54.504;9.588;2023-05-23T00:44:17;101347.78;;;14.45;100.00
8398;BME280;4236;54.504;9.588;2023-05-23T00:46:49;101343.63;;;14.49;100.00
8398;BME280;4236;54.504;9.588;2023-05-23T00:49:19;101349.00;;;14.49;100.00
8398;BME280;4236;54.504;9.588;2023-05-23T00:51:47;101344.06;;;14.46;100.00
8398;BME280;4236;54.504;9.588;2023-05-23T00:54:17;101341.38;;;14.46;100.00
8398;BME280;4236;54.504;9.588;2023-05-23T00:56:47;101331.88;;;14.44;100.00
8398;BME280;4236;54.504;9.588;2023-05-23T00:59:15;101341.59;;;14.38;100.00
8398;BME280;4236;54.504;9.588;2023-05-23T01:01:43;101332.09;;;14.35;100.00
8398;BME280;4236;54.504;9.588;2023-05-23T01:04:13;101335.81;;;14.34;100.00
8398;BME280;4236;54.504;9.588;2023-05-23T01:06:43;101336.84;;;14.33;100.00
8398;BME280;4236;54.504;9.588;2023-05-23T01:09:13;101334.75;;;14.22;100.00
8398;BME280;4236;54.504;9.588;2023-05-23T01:11:45;101329.59;;;14.21;100.00
8398;BME280;4236;54.504;9.588;2023-05-23T01:14:19;101321.13;;;14.24;100.00
8398;BME280;4236;54.504;9.588;2023-05-23T01:16:54;101310.19;;;14.25;100.00
8398;BME280;4236;54.504;9.588;2023-05-23T01:19:39;101305.03;;;14.24;100.00
8398;BME280;4236;54.504;9.588;2023-05-23T01:22:22;101303.59;;;14.21;100.00
8398;BME280;4236;54.504;9.588;2023-05-23T01:25:02;101301.53;;;14.23;100.00
8398;BME280;4236;54.504;9.588;2023-05-23T01:27:44;101302.13;;;14.25;100.00
8398;BME280;4236;54.504;9.588;2023-05-23T01:30:18;101299.03;;;14.28;100.00
8398;BME280;4236;54.504;9.588;2023-05-23T01:32:47;101305.03;;;14.30;100.00
8398;BME280;4236;54.504;9.588;2023-05-23T01:35:20;101305.03;;;14.24;100.00
8398;BME280;4236;54.504;9.588;2023-05-23T01:37:48;101296.16;;;14.23;100.00
8398;BME280;4236;54.504;9.588;2023-05-23T01:40:16;101299.03;;;14.28;100.00
8398;BME280;4236;54.504;9.588;2023-05-23T01:42:46;101294.09;;;14.32;100.00
8398;BME280;4236;54.504;9.588;2023-05-23T01:45:14;101284.22;;;14.32;100.00
8398;BME280;4236;54.504;9.588;2023-05-23T01:47:43;101294.53;;;14.35;100.00
8398;BME280;4236;54.504;9.588;2023-05-23T01:50:13;101291.84;;;14.35;100.00
8398;BME280;4236;54.504;9.588;2023-05-23T01:52:41;101295.97;;;14.38;100.00
8398;BME280;4236;54.504;9.588;2023-05-23T01:55:09;101292.88;;;14.41;100.00
8398;BME280;4236;54.504;9.588;2023-05-23T01:57:37;101293.06;;;14.39;100.00
8398;BME280;4236;54.504;9.588;2023-05-23T02:00:08;101291.22;;;14.40;100.00
8398;BME280;4236;54.504;9.588;2023-05-23T02:02:37;101294.53;;;14.42;100.00
8398;BME280;4236;54.504;9.588;2023-05-23T02:05:05;101300.31;;;14.32;100.00
8398;BME280;4236;54.504;9.588;2023-05-23T02:07:33;101300.47;;;14.31;100.00
8398;BME280;4236;54.504;9.588;2023-05-23T02:10:02;101304.22;;;14.23;100.00
8398;BME280;4236;54.504;9.588;2023-05-23T02:12:30;101302.13;;;14.19;100.00
8398;BME280;4236;54.504;9.588;2023-05-23T02:14:58;101301.94;;;14.14;100.00
8398;BME280;4236;54.504;9.588;2023-05-23T02:17:27;101294.91;;;14.13;100.00
8398;BME280;4236;54.504;9.588;2023-05-23T02:19:54;101296.78;;;14.12;100.00
8398;BME280;4236;54.504;9.588;2023-05-23T02:22:22;101298.22;;;14.08;100.00
8398;BME280;4236;54.504;9.588;2023-05-23T02:24:51;101295.53;;;14.02;100.00
8398;BME280;4236;54.504;9.588;2023-05-23T02:27:18;101297.19;;;14.03;100.00
8398;BME280;4236;54.504;9.588;2023-05-23T02:29:46;101303.16;;;14.05;100.00
8398;BME280;4236;54.504;9.588;2023-05-23T02:32:14;101300.06;;;14.08;100.00
8398;BME280;4236;54.504;9.588;2023-05-23T02:34:43;101297.63;;;14.06;100.00
8398;BME280;4236;54.504;9.588;2023-05-23T02:37:12;101312.88;;;14.06;100.00
8398;BME280;4236;54.504;9.588;2023-05-23T02:39:40;101312.03;;;13.99;100.00
8398;BME280;4236;54.504;9.588;2023-05-23T02:42:08;101287.91;;;13.99;100.00
8398;BME280;4236;54.504;9.588;2023-05-23T02:44:36;101283.78;;;14.03;100.00
8398;BME280;4236;54.504;9.588;2023-05-23T02:47:04;101295.75;;;14.00;100.00
8398;BME280;4236;54.504;9.588;2023-05-23T02:49:33;101307.91;;;13.90;100.00
8398;BME280;4236;54.504;9.588;2023-05-23T02:52:02;101296.34;;;13.89;100.00
8398;BME280;4236;54.504;9.588;2023-05-23T02:54:29;101306.03;;;13.90;100.00
8398;BME280;4236;54.504;9.588;2023-05-23T02:56:57;101297.16;;;13.83;100.00
8398;BME280;4236;54.504;9.588;2023-05-23T02:59:25;101290.78;;;13.84;100.00
8398;BME280;4236;54.504;9.588;2023-05-23T03:01:53;101293.25;;;13.79;100.00
8398;BME280;4236;54.504;9.588;2023-05-23T03:04:22;101283.56;;;13.78;100.00
8398;BME280;4236;54.504;9.588;2023-05-23T03:06:49;101289.34;;;13.81;100.00
8398;BME280;4236;54.504;9.588;2023-05-23T03:09:21;101292.44;;;13.78;100.00
8398;BME280;4236;54.504;9.588;2023-05-23T03:11:48;101305.63;;;13.73;100.00
8398;BME280;4236;54.504;9.588;2023-05-23T03:14:16;101290.13;;;13.69;100.00
8398;BME280;4236;54.504;9.588;2023-05-23T03:16:44;101297.75;;;13.59;100.00
8398;BME280;4236;54.504;9.588;2023-05-23T03:19:12;101296.53;;;13.61;100.00
8398;BME280;4236;54.504;9.588;2023-05-23T03:21:39;101304.56;;;13.61;100.00
8398;BME280;4236;54.504;9.588;2023-05-23T03:24:07;101300.22;;;13.60;100.00
8398;BME280;4236;54.504;9.588;2023-05-23T03:26:36;101305.56;;;13.60;100.00
8398;BME280;4236;54.504;9.588;2023-05-23T03:29:04;101295.06;;;13.59;100.00
8398;BME280;4236;54.504;9.588;2023-05-23T03:31:32;101304.31;;;13.56;100.00
8398;BME280;4236;54.504;9.588;2023-05-23T03:34:00;101296.91;;;13.52;100.00
8398;BME280;4236;54.504;9.588;2023-05-23T03:36:27;101295.47;;;13.56;100.00
8398;BME280;4236;54.504;9.588;2023-05-23T03:38:58;101302.03;;;13.53;100.00
8398;BME280;4236;54.504;9.588;2023-05-23T03:41:26;101296.50;;;13.55;100.00
8398;BME280;4236;54.504;9.588;2023-05-23T03:43:55;101296.50;;;13.55;100.00
8398;BME280;4236;54.504;9.588;2023-05-23T03:46:23;101290.31;;;13.54;100.00
8398;BME280;4236;54.504;9.588;2023-05-23T03:48:51;101293.59;;;13.56;100.00
8398;BME280;4236;54.504;9.588;2023-05-23T03:51:19;101291.34;;;13.60;100.00
8398;BME280;4236;54.504;9.588;2023-05-23T03:53:46;101287.44;;;13.69;100.00
8398;BME280;4236;54.504;9.588;2023-05-23T03:56:14;101291.56;;;13.71;100.00
8398;BME280;4236;54.504;9.588;2023-05-23T03:58:42;101283.53;;;13.71;100.00
8398;BME280;4236;54.504;9.588;2023-05-23T04:01:11;101295.28;;;13.77;100.00
8398;BME280;4236;54.504;9.588;2023-05-23T04:03:38;101290.34;;;13.80;100.00
8398;BME280;4236;54.504;9.588;2023-05-23T04:06:06;101299.44;;;13.86;100.00
8398;BME280;4236;54.504;9.588;2023-05-23T04:08:34;101300.50;;;13.92;100.00
8398;BME280;4236;54.504;9.588;2023-05-23T04:11:02;101313.50;;;13.95;100.00
8398;BME280;4236;54.504;9.588;2023-05-23T04:13:29;101309.16;;;14.00;100.00
8398;BME280;4236;54.504;9.588;2023-05-23T04:15:58;101315.97;;;14.03;100.00
8398;BME280;4236;54.504;9.588;2023-05-23T04:18:28;101319.47;;;14.03;100.00
8398;BME280;4236;54.504;9.588;2023-05-23T04:20:55;101315.97;;;14.03;100.00
8398;BME280;4236;54.504;9.588;2023-05-23T04:23:23;101316.38;;;14.00;100.00
8398;BME280;4236;54.504;9.588;2023-05-23T04:25:51;101313.47;;;14.01;100.00
8398;BME280;4236;54.504;9.588;2023-05-23T04:28:18;101309.78;;;14.02;100.00
8398;BME280;4236;54.504;9.588;2023-05-23T04:30:46;101313.09;;;13.98;100.00
8398;BME280;4236;54.504;9.588;2023-05-23T04:33:16;101300.91;;;14.02;100.00
8398;BME280;4236;54.504;9.588;2023-05-23T04:35:45;101310.63;;;14.09;100.00
8398;BME280;4236;54.504;9.588;2023-05-23T04:38:13;101311.22;;;14.05;100.00
8398;BME280;4236;54.504;9.588;2023-05-23T04:40:40;101313.69;;;14.00;100.00
8398;BME280;4236;54.504;9.588;2023-05-23T04:43:08;101315.13;;;14.02;100.00
8398;BME280;4236;54.504;9.588;2023-05-23T04:45:39;101318.44;;;14.04;100.00
8398;BME280;4236;54.504;9.588;2023-05-23T04:48:08;101316.16;;;14.01;100.00
8398;BME280;4236;54.504;9.588;2023-05-23T04:50:38;101313.06;;;14.04;100.00
8398;BME280;4236;54.504;9.588;2023-05-23T04:53:07;101316.78;;;14.03;100.00
8398;BME280;4236;54.504;9.588;2023-05-23T04:55:35;101320.69;;;14.07;100.00
8398;BME280;4236;54.504;9.588;2023-05-23T04:58:03;101320.50;;;14.09;100.00
8398;BME280;4236;54.504;9.588;2023-05-23T05:00:30;101326.91;;;14.08;100.00
8398;BME280;4236;54.504;9.588;2023-05-23T05:02:58;101333.09;;;14.15;100.00
8398;BME280;4236;54.504;9.588;2023-05-23T05:05:26;101335.97;;;14.13;100.00
8398;BME280;4236;54.504;9.588;2023-05-23T05:07:54;101325.66;;;13.97;100.00
8398;BME280;4236;54.504;9.588;2023-05-23T05:10:23;101345.66;;;13.88;100.00
8398;BME280;4236;54.504;9.588;2023-05-23T05:12:50;101338.44;;;13.89;100.00
8398;BME280;4236;54.504;9.588;2023-05-23T05:15:18;101342.31;;;13.73;100.00
8398;BME280;4236;54.504;9.588;2023-05-23T05:17:46;101344.75;;;13.68;100.00
8398;BME280;4236;54.504;9.588;2023-05-23T05:20:15;101354.69;;;13.67;100.00
8398;BME280;4236;54.504;9.588;2023-05-23T05:22:44;101356.13;;;13.70;100.00
8398;BME280;4236;54.504;9.588;2023-05-23T05:25:12;101360.84;;;13.61;100.00
8398;BME280;4236;54.504;9.588;2023-05-23T05:27:41;101358.97;;;13.55;100.00
8398;BME280;4236;54.504;9.588;2023-05-23T05:30:09;101365.38;;;13.61;100.00
8398;BME280;4236;54.504;9.588;2023-05-23T05:32:37;101370.50;;;13.62;100.00
8398;BME280;4236;54.504;9.588;2023-05-23T05:35:06;101372.41;;;13.62;100.00
8398;BME280;4236;54.504;9.588;2023-05-23T05:37:34;101381.81;;;13.51;100.00
8398;BME280;4236;54.504;9.588;2023-05-23T05:40:02;101379.13;;;13.51;100.00
8398;BME280;4236;54.504;9.588;2023-05-23T05:42:33;101385.34;;;13.52;100.00
8398;BME280;4236;54.504;9.588;2023-05-23T05:45:03;101381.38;;;13.48;100.00
8398;BME280;4236;54.504;9.588;2023-05-23T05:47:32;101382.22;;;13.48;100.00
8398;BME280;4236;54.504;9.588;2023-05-23T05:49:59;101387.97;;;13.45;100.00
8398;BME280;4236;54.504;9.588;2023-05-23T05:52:28;101380.97;;;13.51;100.00
8398;BME280;4236;54.504;9.588;2023-05-23T05:54:56;101375.22;;;13.54;100.00
8398;BME280;4236;54.504;9.588;2023-05-23T05:57:24;101372.38;;;13.55;100.00
8398;BME280;4236;54.504;9.588;2023-05-23T05:59:51;101390.47;;;13.53;100.00
8398;BME280;4236;54.504;9.588;2023-05-23T06:02:20;101378.75;;;13.54;100.00
8398;BME280;4236;54.504;9.588;2023-05-23T06:04:48;101391.69;;;13.51;100.00
8398;BME280;4236;54.504;9.588;2023-05-23T06:07:16;101391.06;;;13.42;100.00
8398;BME280;4236;54.504;9.588;2023-05-23T06:09:44;101400.75;;;13.43;100.00
8398;BME280;4236;54.504;9.588;2023-05-23T06:12:12;101409.97;;;13.34;100.00
8398;BME280;4236;54.504;9.588;2023-05-23T06:14:39;101419.59;;;13.22;100.00
8398;BME280;4236;54.504;9.588;2023-05-23T06:17:07;101419.09;;;13.12;100.00
8398;BME280;4236;54.504;9.588;2023-05-23T06:19:36;101412.31;;;13.09;100.00
8398;BME280;4236;54.504;9.588;2023-05-23T06:22:05;101425.94;;;12.93;100.00
8398;BME280;4236;54.504;9.588;2023-05-23T06:24:32;101426.75;;;12.87;100.00
8398;BME280;4236;54.504;9.588;2023-05-23T06:27:00;101434.72;;;12.81;100.00
8398;BME280;4236;54.504;9.588;2023-05-23T06:29:28;101428.09;;;12.76;100.00
8398;BME280;4236;54.504;9.588;2023-05-23T06:31:56;101431.22;;;12.80;100.00
8398;BME280;4236;54.504;9.588;2023-05-23T06:34:24;101434.34;;;12.84;100.00
8398;BME280;4236;54.504;9.588;2023-05-23T06:36:53;101434.56;;;12.89;100.00
8398;BME280;4236;54.504;9.588;2023-05-23T06:39:21;101437.09;;;12.97;100.00
8398;BME280;4236;54.504;9.588;2023-05-23T06:41:49;101437.22;;;13.10;100.00
8398;BME280;4236;54.504;9.588;2023-05-23T06:44:16;101444.53;;;13.22;100.00
8398;BME280;4236;54.504;9.588;2023-05-23T06:46:45;101436.63;;;13.49;100.00
8398;BME280;4236;54.504;9.588;2023-05-23T06:49:13;101429.66;;;13.54;100.00
8398;BME280;4236;54.504;9.588;2023-05-23T06:51:41;101428.84;;;13.60;100.00
8398;BME280;4236;54.504;9.588;2023-05-23T06:54:10;101432.41;;;13.67;100.00
8398;BME280;4236;54.504;9.588;2023-05-23T06:56:38;101424.75;;;13.64;100.00
8398;BME280;4236;54.504;9.588;2023-05-23T06:59:06;101430.91;;;13.58;100.00
8398;BME280;4236;54.504;9.588;2023-05-23T07:01:33;101436.47;;;13.57;100.00
8398;BME280;4236;54.504;9.588;2023-05-23T07:04:01;101450.22;;;13.41;100.00
8398;BME280;4236;54.504;9.588;2023-05-23T07:06:29;101452.53;;;13.16;100.00
8398;BME280;4236;54.504;9.588;2023-05-23T07:08:58;101448.63;;;12.97;100.00
8398;BME280;4236;54.504;9.588;2023-05-23T07:11:27;101458.81;;;12.81;100.00
8398;BME280;4236;54.504;9.588;2023-05-23T07:13:54;101482.22;;;12.72;100.00
8398;BME280;4236;54.504;9.588;2023-05-23T07:16:22;101481.47;;;12.57;100.00
8398;BME280;4236;54.504;9.588;2023-05-23T07:18:50;101492.22;;;12.42;100.00
8398;BME280;4236;54.504;9.588;2023-05-23T07:21:18;101498.34;;;12.36;100.00
8398;BME280;4236;54.504;9.588;2023-05-23T07:23:45;101500.41;;;12.19;100.00
8398;BME280;4236;54.504;9.588;2023-05-23T07:26:13;101501.06;;;12.07;100.00
8398;BME280;4236;54.504;9.588;2023-05-23T07:28:42;101523.94;;;11.95;100.00
8398;BME280;4236;54.504;9.588;2023-05-23T07:31:10;101511.41;;;11.95;100.00
8398;BME280;4236;54.504;9.588;2023-05-23T07:33:39;101515.59;;;11.83;100.00
8398;BME280;4236;54.504;9.588;2023-05-23T07:36:07;101524.72;;;11.74;100.00
8398;BME280;4236;54.504;9.588;2023-05-23T07:38:35;101523.16;;;11.80;100.00
8398;BME280;4236;54.504;9.588;2023-05-23T07:41:02;101525.63;;;11.81;100.00
8398;BME280;4236;54.504;9.588;2023-05-23T07:43:38;101525.63;;;11.81;100.00
8398;BME280;4236;54.504;9.588;2023-05-23T07:46:06;101521.97;;;11.82;100.00
8398;BME280;4236;54.504;9.588;2023-05-23T07:48:34;101514.84;;;11.75;100.00
8398;BME280;4236;54.504;9.588;2023-05-23T07:51:02;101527.69;;;11.79;100.00
8398;BME280;4236;54.504;9.588;2023-05-23T07:53:30;101541.00;;;11.64;100.00
8398;BME280;4236;54.504;9.588;2023-05-23T07:55:57;101562.28;;;11.58;100.00
8398;BME280;4236;54.504;9.588;2023-05-23T07:58:25;101544.69;;;11.49;100.00
8398;BME280;4236;54.504;9.588;2023-05-23T08:00:53;101534.47;;;11.52;100.00
8398;BME280;4236;54.504;9.588;2023-05-23T08:03:22;101540.06;;;11.57;100.00
8398;BME280;4236;54.504;9.588;2023-05-23T08:05:49;101542.28;;;11.68;100.00
8398;BME280;4236;54.504;9.588;2023-05-23T08:08:17;101545.69;;;11.62;100.00
8398;BME280;4236;54.504;9.588;2023-05-23T08:10:45;101528.81;;;11.62;100.00
8398;BME280;4236;54.504;9.588;2023-05-23T08:13:12;101545.31;;;11.65;100.00
8398;BME280;4236;54.504;9.588;2023-05-23T08:15:40;101546.91;;;11.75;100.00
8398;BME280;4236;54.504;9.588;2023-05-23T08:18:08;101549.59;;;11.75;100.00
8398;BME280;4236;54.504;9.588;2023-05-23T08:20:38;101548.69;;;11.82;100.00
8398;BME280;4236;54.504;9.588;2023-05-23T08:23:05;101543.41;;;11.89;100.00
8398;BME280;4236;54.504;9.588;2023-05-23T08:25:33;101551.72;;;11.79;100.00
8398;BME280;4236;54.504;9.588;2023-05-23T08:28:01;101557.34;;;11.84;100.00
8398;BME280;4236;54.504;9.588;2023-05-23T08:30:30;101565.53;;;11.83;100.00
8398;BME280;4236;54.504;9.588;2023-05-23T08:32:59;101567.75;;;11.94;100.00
8398;BME280;4236;54.504;9.588;2023-05-23T08:35:30;101573.25;;;11.92;100.00
8398;BME280;4236;54.504;9.588;2023-05-23T08:38:03;101570.88;;;11.97;100.00
8398;BME280;4236;54.504;9.588;2023-05-23T08:40:31;101572.06;;;12.24;100.00
8398;BME280;4236;54.504;9.588;2023-05-23T08:42:59;101564.78;;;12.18;100.00
8398;BME280;4236;54.504;9.588;2023-05-23T08:45:26;101563.13;;;12.17;100.00
8398;BME280;4236;54.504;9.588;2023-05-23T08:47:59;101549.44;;;12.27;100.00
8398;BME280;4236;54.504;9.588;2023-05-23T08:50:27;101558.56;;;12.32;100.00
8398;BME280;4236;54.504;9.588;2023-05-23T08:52:57;101559.84;;;12.36;100.00
8398;BME280;4236;54.504;9.588;2023-05-23T08:55:27;101567.63;;;12.52;100.00
8398;BME280;4236;54.504;9.588;2023-05-23T08:57:57;101559.34;;;12.47;100.00
8398;BME280;4236;54.504;9.588;2023-05-23T09:00:26;101575.63;;;12.31;100.00
8398;BME280;4236;54.504;9.588;2023-05-23T09:02:54;101574.25;;;12.20;100.00
8398;BME280;4236;54.504;9.588;2023-05-23T09:05:25;101568.09;;;12.20;100.00
8398;BME280;4236;54.504;9.588;2023-05-23T09:07:53;101575.16;;;12.28;100.00
8398;BME280;4236;54.504;9.588;2023-05-23T09:10:22;101560.63;;;12.15;100.00
8398;BME280;4236;54.504;9.588;2023-05-23T09:12:51;101583.00;;;12.29;100.00
8398;BME280;4236;54.504;9.588;2023-05-23T09:15:19;101587.97;;;12.32;100.00
8398;BME280;4236;54.504;9.588;2023-05-23T09:17:47;101575.41;;;12.47;100.00
8398;BME280;4236;54.504;9.588;2023-05-23T09:20:16;101589.19;;;12.30;100.00
8398;BME280;4236;54.504;9.588;2023-05-23T09:22:45;101584.38;;;12.25;100.00
8398;BME280;4236;54.504;9.588;2023-05-23T09:25:14;101589.16;;;12.44;100.00
8398;BME280;4236;54.504;9.588;2023-05-23T09:27:42;101580.63;;;12.55;100.00
8398;BME280;4236;54.504;9.588;2023-05-23T09:30:16;101597.47;;;12.70;100.00
8398;BME280;4236;54.504;9.588;2023-05-23T09:32:57;101595.72;;;12.77;100.00
8398;BME280;4236;54.504;9.588;2023-05-23T09:35:29;101591.19;;;12.78;100.00
8398;BME280;4236;54.504;9.588;2023-05-23T09:37:57;101613.53;;;12.70;100.00
8398;BME280;4236;54.504;9.588;2023-05-23T09:40:29;101597.03;;;12.67;100.00
8398;BME280;4236;54.504;9.588;2023-05-23T09:43:01;101601.16;;;12.48;100.00
8398;BME280;4236;54.504;9.588;2023-05-23T09:45:31;101608.34;;;12.48;100.00
8398;BME280;4236;54.504;9.588;2023-05-23T09:47:59;101606.41;;;12.42;100.00
8398;BME280;4236;54.504;9.588;2023-05-23T09:50:30;101607.88;;;12.44;100.00
8398;BME280;4236;54.504;9.588;2023-05-23T09:52:58;101610.28;;;12.54;100.00
8398;BME280;4236;54.504;9.588;2023-05-23T09:55:26;101599.25;;;12.63;100.00
8398;BME280;4236;54.504;9.588;2023-05-23T09:57:54;101597.88;;;12.89;100.00
8398;BME280;4236;54.504;9.588;2023-05-23T10:00:25;101597.19;;;13.01;100.00
8398;BME280;4236;54.504;9.588;2023-05-23T10:03:00;101604.94;;;13.11;100.00
8398;BME280;4236;54.504;9.588;2023-05-23T10:05:35;101613.38;;;13.14;100.00
8398;BME280;4236;54.504;9.588;2023-05-23T10:08:07;101606.19;;;13.15;100.00
8398;BME280;4236;54.504;9.588;2023-05-23T10:13:38;101617.69;;;13.85;100.00
8398;BME280;4236;54.504;9.588;2023-05-23T10:16:11;101611.41;;;14.06;100.00
8398;BME280;4236;54.504;9.588;2023-05-23T10:18:43;101606.38;;;13.97;100.00
8398;BME280;4236;54.504;9.588;2023-05-23T10:21:15;101600.72;;;14.19;100.00
8398;BME280;4236;54.504;9.588;2023-05-23T10:23:46;101595.88;;;14.36;100.00
8398;BME280;4236;54.504;9.588;2023-05-23T10:26:14;101585.38;;;14.00;100.00
8398;BME280;4236;54.504;9.588;2023-05-23T10:28:44;101603.50;;;13.98;100.00
8398;BME280;4236;54.504;9.588;2023-05-23T10:31:12;101595.50;;;14.05;100.00
8398;BME280;4236;54.504;9.588;2023-05-23T10:33:47;101588.94;;;14.14;100.00
8398;BME280;4236;54.504;9.588;2023-05-23T10:36:21;101593.28;;;14.15;100.00
8398;BME280;4236;54.504;9.588;2023-05-23T10:38:56;101602.00;;;14.23;100.00
8398;BME280;4236;54.504;9.588;2023-05-23T10:44:13;101600.84;;;14.39;100.00
8398;BME280;4236;54.504;9.588;2023-05-23T10:46:50;101599.03;;;14.53;100.00
8398;BME280;4236;54.504;9.588;2023-05-23T10:49:20;101607.31;;;14.17;100.00
8398;BME280;4236;54.504;9.588;2023-05-23T10:51:49;101593.53;;;14.26;100.00
8398;BME280;4236;54.504;9.588;2023-05-23T10:54:18;101594.44;;;14.33;100.00
8398;BME280;4236;54.504;9.588;2023-05-23T10:56:47;101612.59;;;14.38;100.00
8398;BME280;4236;54.504;9.588;2023-05-23T10:59:29;101598.56;;;14.36;100.00
8398;BME280;4236;54.504;9.588;2023-05-23T11:01:59;101587.91;;;14.15;100.00
8398;BME280;4236;54.504;9.588;2023-05-23T11:04:28;101613.63;;;14.37;100.00
8398;BME280;4236;54.504;9.588;2023-05-23T11:06:57;101613.75;;;14.70;100.00
8398;BME280;4236;54.504;9.588;2023-05-23T11:09:24;101609.69;;;15.07;100.00
8398;BME280;4236;54.504;9.588;2023-05-23T11:11:54;101623.53;;;15.04;100.00
8398;BME280;4236;54.504;9.588;2023-05-23T11:14:52;101614.81;;;14.75;100.00
8398;BME280;4236;54.504;9.588;2023-05-23T11:17:31;101605.28;;;14.73;100.00
8398;BME280;4236;54.504;9.588;2023-05-23T11:20:03;101611.69;;;14.65;100.00
8398;BME280;4236;54.504;9.588;2023-05-23T11:22:33;101596.19;;;14.74;100.00
8398;BME280;4236;54.504;9.588;2023-05-23T11:25:06;101618.06;;;14.64;100.00
8398;BME280;4236;54.504;9.588;2023-05-23T11:27:36;101604.63;;;14.58;100.00
8398;BME280;4236;54.504;9.588;2023-05-23T11:30:07;101601.13;;;14.57;100.00
8398;BME280;4236;54.504;9.588;2023-05-23T11:32:35;101617.78;;;14.46;100.00
8398;BME280;4236;54.504;9.588;2023-05-23T11:35:07;101624.56;;;14.35;100.00
8398;BME280;4236;54.504;9.588;2023-05-23T11:37:37;101619.47;;;14.47;100.00
8398;BME280;4236;54.504;9.588;2023-05-23T11:40:27;101620.31;;;14.61;100.00
8398;BME280;4236;54.504;9.588;2023-05-23T11:42:55;101591.59;;;14.48;100.00
8398;BME280;4236;54.504;9.588;2023-05-23T11:45:24;101615.00;;;14.74;100.00
8398;BME280;4236;54.504;9.588;2023-05-23T11:47:52;101621.00;;;14.69;100.00
8398;BME280;4236;54.504;9.588;2023-05-23T11:50:21;101616.63;;;14.68;100.00
8398;BME280;4236;54.504;9.588;2023-05-23T11:52:50;101619.34;;;14.81;100.00
8398;BME280;4236;54.504;9.588;2023-05-23T11:55:18;101625.75;;;14.80;100.00
8398;BME280;4236;54.504;9.588;2023-05-23T11:57:47;101622.00;;;14.68;100.00
8398;BME280;4236;54.504;9.588;2023-05-23T12:00:15;101632.97;;;14.80;100.00
8398;BME280;4236;54.504;9.588;2023-05-23T12:02:44;101625.13;;;14.78;100.00
8398;BME280;4236;54.504;9.588;2023-05-23T12:05:13;101625.16;;;14.91;100.00
8398;BME280;4236;54.504;9.588;2023-05-23T12:07:43;101638.13;;;14.81;100.00
8398;BME280;4236;54.504;9.588;2023-05-23T12:10:12;101634.84;;;14.79;100.00
8398;BME280;4236;54.504;9.588;2023-05-23T12:12:41;101639.66;;;15.04;100.00
8398;BME280;4236;54.504;9.588;2023-05-23T12:15:09;101636.34;;;15.02;100.00
8398;BME280;4236;54.504;9.588;2023-05-23T12:17:38;101636.28;;;14.82;100.00
8398;BME280;4236;54.504;9.588;2023-05-23T12:20:06;101627.16;;;14.70;100.00
8398;BME280;4236;54.504;9.588;2023-05-23T12:22:34;101629.50;;;14.92;100.00
8398;BME280;4236;54.504;9.588;2023-05-23T12:25:07;101631.53;;;14.77;100.00
8398;BME280;4236;54.504;9.588;2023-05-23T12:27:35;101630.91;;;14.82;100.00
8398;BME280;4236;54.504;9.588;2023-05-23T12:30:04;101630.56;;;15.18;100.00
8398;BME280;4236;54.504;9.588;2023-05-23T12:32:32;101641.53;;;15.23;100.00
8398;BME280;4236;54.504;9.588;2023-05-23T12:35:01;101650.84;;;15.14;100.00
8398;BME280;4236;54.504;9.588;2023-05-23T12:37:30;101644.03;;;15.11;100.00
8398;BME280;4236;54.504;9.588;2023-05-23T12:40:10;101641.78;;;15.67;100.00
8398;BME280;4236;54.504;9.588;2023-05-23T12:42:48;101649.03;;;15.47;100.00
8398;BME280;4236;54.504;9.588;2023-05-23T12:45:16;101657.66;;;15.23;100.00
8398;BME280;4236;54.504;9.588;2023-05-23T12:47:44;101640.47;;;14.98;100.00
8398;BME280;4236;54.504;9.588;2023-05-23T12:50:12;101655.31;;;14.93;100.00
8398;BME280;4236;54.504;9.588;2023-05-23T12:52:39;101662.91;;;14.77;100.00
8398;BME280;4236;54.504;9.588;2023-05-23T12:55:09;101687.16;;;14.49;100.00
8398;BME280;4236;54.504;9.588;2023-05-23T12:57:37;101672.03;;;14.82;100.00
8398;BME280;4236;54.504;9.588;2023-05-23T13:00:06;101662.06;;;14.63;100.00
8398;BME280;4236;54.504;9.588;2023-05-23T13:02:34;101679.91;;;14.43;100.00
8398;BME280;4236;54.504;9.588;2023-05-23T13:05:02;101683.03;;;14.47;100.00
8398;BME280;4236;54.504;9.588;2023-05-23T13:07:30;101677.69;;;14.53;100.00
8398;BME280;4236;54.504;9.588;2023-05-23T13:09:59;101666.31;;;14.99;100.00
8398;BME280;4236;54.504;9.588;2023-05-23T13:12:28;101686.28;;;14.83;100.00
8398;BME280;4236;54.504;9.588;2023-05-23T13:14:56;101675.72;;;14.75;100.00
8398;BME280;4236;54.504;9.588;2023-05-23T13:17:24;101672.09;;;15.09;100.00